»·PEaware :: ABX959 KSFO-KLAS

ABX959 :: KSFO-KLAS

FLIGHT INFORMATION

Flight Status: Arrived
Operator:
Airborne Express
More flights by this operator :: More flights under this callsign
Pilot: Max W. (2591)
Aircraft: BOEING 767-200
(B762)
More flights by this aircraft type
Origin: KSFO San Francisco Intl
United States
Destination: KLAS McCarran Intl
United States
More flights between these airports :: More routes between these airports
Route: +WESLA4 NTELL Q162 ESSAA BTY SUNST4
File this flight plan on PilotEdge
Remarks: STUDENT PILOT FAILED MY V1 5X SORRY KEITH
Altitude:
(Current/Filed)
29,000ft
Speed:
(Current/Filed)
450kts
Departed: 04-Apr-19 05:10 PM
Arrived: 04-Apr-19 06:19 PM
Distance/Time
Traveled:
360nm/1:09
Distance/Time
To Go:
Arrived

Flight Plot

Page will automatically refresh every two minutes.

Flight plan parsing failed; only flown route is shown


Map Options




Map Legend


Flown Route
Filed Route
Departure Airport
Arrival Airport
Navaid (VOR, NDB)
Fix

Horizontal Profiles

Position Reports

Time Latitude Longitude Heading Altitude Ground
Speed
04-Apr-19 16:44 37.627151 -122.383543 296 23ft 0kts
04-Apr-19 16:45 37.627151 -122.383543 296 23ft 0kts
04-Apr-19 16:46 37.627151 -122.383543 296 23ft 0kts
04-Apr-19 16:47 37.627151 -122.383543 296 23ft 0kts
04-Apr-19 16:48 37.627151 -122.383543 296 23ft 1kts
04-Apr-19 16:49 37.627151 -122.383543 296 23ft 0kts
04-Apr-19 16:50 37.627151 -122.383543 296 23ft 0kts
04-Apr-19 16:51 37.627151 -122.383543 296 23ft 0kts
04-Apr-19 16:52 37.627151 -122.383543 296 23ft 0kts
04-Apr-19 16:53 37.627151 -122.383543 296 23ft 0kts
04-Apr-19 16:54 37.627151 -122.383543 296 23ft 0kts
04-Apr-19 16:55 37.627151 -122.383543 296 23ft 0kts
04-Apr-19 16:56 37.627172 -122.384054 264 23ft 0kts
04-Apr-19 16:57 37.627172 -122.384054 264 23ft 0kts
04-Apr-19 16:58 37.627170 -122.384074 264 23ft 1kts
04-Apr-19 16:59 37.625571 -122.382190 117 23ft 6kts
04-Apr-19 17:00 37.623779 -122.377862 117 23ft 17kts
04-Apr-19 17:01 37.620959 -122.371128 117 23ft 24kts
04-Apr-19 17:02 37.618054 -122.364262 120 23ft 27kts
04-Apr-19 17:03 37.616022 -122.359373 115 23ft 7kts
04-Apr-19 17:04 37.615310 -122.357638 118 23ft 0kts
04-Apr-19 17:05 37.615310 -122.357638 118 23ft 0kts
04-Apr-19 17:06 37.615310 -122.357638 118 23ft 0kts
04-Apr-19 17:07 37.614919 -122.356962 143 23ft 11kts
04-Apr-19 17:08 37.614049 -122.358391 298 23ft 15kts
04-Apr-19 17:09 37.629335 -122.394526 291 794ft 168kts
04-Apr-19 17:10 37.650553 -122.447086 291 2186ft 193kts
04-Apr-19 17:11 37.658870 -122.519806 223 3823ft 241kts
04-Apr-19 17:12 37.596019 -122.513482 163 6802ft 249kts
04-Apr-19 17:13 37.532156 -122.489289 166 9550ft 245kts
04-Apr-19 17:14 37.474134 -122.446180 129 11782ft 262kts
04-Apr-19 17:15 37.430258 -122.371000 129 13875ft 270kts
04-Apr-19 17:16 37.400730 -122.282658 108 15753ft 285kts
04-Apr-19 17:17 37.381081 -122.184444 108 17512ft 293kts
04-Apr-19 17:18 37.360996 -122.083700 108 19156ft 301kts
04-Apr-19 17:19 37.340367 -121.980677 109 20679ft 308kts
04-Apr-19 17:20 37.319099 -121.874980 109 22089ft 314kts
04-Apr-19 17:21 37.296720 -121.764536 108 22696ft 348kts
04-Apr-19 17:22 37.272391 -121.644667 108 24045ft 358kts
04-Apr-19 17:23 37.247291 -121.521905 109 25382ft 365kts
04-Apr-19 17:24 37.221444 -121.396325 109 26248ft 384kts
04-Apr-19 17:25 37.194287 -121.264986 109 27508ft 392kts
04-Apr-19 17:26 37.166738 -121.132642 109 28644ft 399kts
04-Apr-19 17:27 37.138052 -120.995793 109 29058ft 423kts
04-Apr-19 17:28 37.106811 -120.847662 108 29049ft 459kts
04-Apr-19 17:29 37.073173 -120.689097 108 29034ft 476kts
04-Apr-19 17:30 37.038907 -120.528771 108 29036ft 477kts
04-Apr-19 17:31 37.004648 -120.369661 108 29041ft 478kts
04-Apr-19 17:32 36.970712 -120.213180 109 29041ft 477kts
04-Apr-19 17:33 36.935747 -120.053072 108 29044ft 478kts
04-Apr-19 17:34 36.911644 -119.890663 89 29051ft 490kts
04-Apr-19 17:35 36.952692 -119.726834 69 29046ft 498kts
04-Apr-19 17:36 37.005210 -119.566996 69 29046ft 498kts
04-Apr-19 17:37 37.057284 -119.406583 70 29045ft 496kts
04-Apr-19 17:38 37.106064 -119.255370 71 29044ft 485kts
04-Apr-19 17:39 37.156392 -119.098518 71 29031ft 485kts
04-Apr-19 17:40 37.206664 -118.940937 70 29008ft 484kts
04-Apr-19 17:41 37.256191 -118.784897 69 29006ft 480kts
04-Apr-19 17:42 37.285423 -118.622066 84 28952ft 478kts
04-Apr-19 17:43 37.300948 -118.456566 84 28912ft 479kts
04-Apr-19 17:44 37.315398 -118.296900 85 28909ft 478kts
04-Apr-19 17:45 37.330149 -118.130920 85 28910ft 478kts
04-Apr-19 17:46 37.344696 -117.964555 85 28910ft 478kts
04-Apr-19 17:47 37.342177 -117.798448 97 28910ft 475kts
04-Apr-19 17:48 37.327706 -117.633312 98 28911ft 475kts
04-Apr-19 17:49 37.312788 -117.468489 98 28953ft 475kts
04-Apr-19 17:50 37.289941 -117.313332 115 29000ft 469kts
04-Apr-19 17:51 37.217775 -117.178804 129 29000ft 464kts
04-Apr-19 17:52 37.139799 -117.050176 130 29001ft 464kts
04-Apr-19 17:53 37.055424 -116.928066 145 28769ft 472kts
04-Apr-19 17:54 36.944495 -116.847254 153 26335ft 453kts
04-Apr-19 17:55 36.843302 -116.777114 153 24097ft 463kts
04-Apr-19 17:56 36.747274 -116.670163 134 23976ft 471kts
04-Apr-19 17:57 36.660208 -116.547190 133 23973ft 471kts
04-Apr-19 17:58 36.573649 -116.424483 133 23972ft 471kts
04-Apr-19 17:59 36.491157 -116.307837 134 22626ft 461kts
04-Apr-19 18:00 36.407522 -116.189996 134 20024ft 450kts
04-Apr-19 18:01 36.326950 -116.076825 134 17730ft 416kts
04-Apr-19 18:02 36.254839 -115.975868 134 16678ft 368kts
04-Apr-19 18:03 36.189347 -115.888870 141 15990ft 318kts
04-Apr-19 18:04 36.125605 -115.819417 141 14377ft 300kts
04-Apr-19 18:05 36.063707 -115.752629 141 12336ft 291kts
04-Apr-19 18:06 36.003019 -115.687657 141 10935ft 285kts
04-Apr-19 18:07 35.943184 -115.624237 141 9520ft 281kts
04-Apr-19 18:08 35.886771 -115.564558 141 9036ft 279kts
04-Apr-19 18:09 35.828028 -115.502056 141 9048ft 278kts
04-Apr-19 18:10 35.816961 -115.417213 48 8061ft 294kts
04-Apr-19 18:11 35.880782 -115.358302 25 7895ft 272kts
04-Apr-19 18:12 35.942701 -115.324467 25 6558ft 242kts
04-Apr-19 18:13 35.998849 -115.294843 25 5794ft 201kts
04-Apr-19 18:14 36.045264 -115.269925 46 4870ft 170kts
04-Apr-19 18:15 36.073329 -115.225592 90 3546ft 156kts
04-Apr-19 18:16 36.073684 -115.172906 94 2383ft 153kts
04-Apr-19 18:17 36.073977 -115.136347 70 2123ft 53kts
04-Apr-19 18:18 36.078436 -115.132493 90 2123ft 29kts
04-Apr-19 18:19 36.080028 -115.129442 104 2123ft 0kts
04-Apr-19 18:20 36.080028 -115.129442 104 2123ft 0kts
04-Apr-19 18:21 36.080028 -115.129442 104 2123ft 0kts
04-Apr-19 18:23 36.080028 -115.129442 104 2123ft 0kts

Navigation Log

Ident Type
Flight plan parsing failed, navigation log unavailable